Time;durP1;ratioP1;P1;durP2;ratioP2;P2;SDS_P1;SDS_P2;PMS_P1;PMS_P2;Temp;Humidity;BMP_temperature;BMP_pressure;BME280_temperature;BME280_humidity;BME280_pressure;Samples;Min_cycle;Max_cycle;Signal;HPM_P1;HPM_P2
2021/07/15 00:01:31;;;;;;;20.25;5.35;;;;;;;;;;5115848;28;20089;-83
2021/07/15 00:03:56;;;;;;;12.35;4.65;;;;;;;;;;5115848;28;20111;-83
2021/07/15 00:06:22;;;;;;;25.85;6.97;;;;;;;;;;5116698;28;20460;-83
2021/07/15 00:08:51;;;;;;;18.88;4.65;;;;;;;;;;5115648;28;20046;-84
2021/07/15 00:11:17;;;;;;;14.35;4.63;;;;;;;;;;5115546;28;20024;-84
2021/07/15 00:13:43;;;;;;;11.45;5.18;;;;;;;;;;5115191;28;20122;-83
2021/07/15 00:16:11;;;;;;;16.83;4.93;;;;;;;;;;5116724;28;20075;-84
2021/07/15 00:18:41;;;;;;;15.75;4.72;;;;;;;;;;5098546;28;20051;-84
2021/07/15 00:21:10;;;;;;;12.32;4.88;;;;;;;;;;5116604;28;20122;-84
2021/07/15 00:23:36;;;;;;;9.77;4.90;;;;;;;;;;5115319;28;20036;-84
2021/07/15 00:26:04;;;;;;;27.35;6.07;;;;;;;;;;5099621;27;20038;-84
2021/07/15 00:28:30;;;;;;;28.48;6.43;;;;;;;;;;5135830;27;20474;-84
2021/07/15 00:30:56;;;;;;;29.60;6.78;;;;;;;;;;5135700;27;20027;-84
2021/07/15 00:33:22;;;;;;;35.72;7.43;;;;;;;;;;5140716;27;20027;-85
2021/07/15 00:35:47;;;;;;;29.35;6.95;;;;;;;;;;5143418;27;20038;-84
2021/07/15 00:38:13;;;;;;;34.38;7.28;;;;;;;;;;5143017;27;20039;-84
2021/07/15 00:40:39;;;;;;;18.27;7.80;;;;;;;;;;5142152;27;20087;-84
2021/07/15 00:43:05;;;;;;;16.05;6.65;;;;;;;;;;5143594;27;20041;-84
2021/07/15 00:45:30;;;;;;;36.95;7.65;;;;;;;;;;5141695;27;20118;-84
2021/07/15 00:47:56;;;;;;;21.85;7.53;;;;;;;;;;5141776;27;20069;-84
2021/07/15 00:50:22;;;;;;;18.50;6.13;;;;;;;;;;5124420;27;20030;-84
2021/07/15 00:52:52;;;;;;;18.35;6.18;;;;;;;;;;5140957;27;20039;-84
2021/07/15 00:55:26;;;;;;;16.88;6.65;;;;;;;;;;5140891;27;20172;-84
2021/07/15 00:57:52;;;;;;;17.38;6.43;;;;;;;;;;5140945;27;20043;-84
2021/07/15 01:00:18;;;;;;;41.78;9.07;;;;;;;;;;5131050;27;20125;-84
2021/07/15 01:02:44;;;;;;;13.38;7.90;;;;;;;;;;5119915;28;20063;-84
2021/07/15 01:05:19;;;;;;;19.70;7.28;;;;;;;;;;5119151;28;20035;-84
2021/07/15 01:07:45;;;;;;;11.63;7.18;;;;;;;;;;5102620;28;20039;-83
2021/07/15 01:10:12;;;;;;;15.85;7.28;;;;;;;;;;5102209;28;20397;-84
2021/07/15 01:12:56;;;;;;;24.58;7.03;;;;;;;;;;5119852;28;20114;-84
2021/07/15 01:15:25;;;;;;;86.72;9.07;;;;;;;;;;5101415;28;20084;-84
2021/07/15 01:18:14;;;;;;;12.98;6.60;;;;;;;;;;5101184;28;20031;-84
2021/07/15 01:20:57;;;;;;;11.98;6.50;;;;;;;;;;5118011;28;20410;-83
2021/07/15 01:23:32;;;;;;;22.83;7.88;;;;;;;;;;5119384;28;20030;-84
2021/07/15 01:26:15;;;;;;;11.57;5.90;;;;;;;;;;5117211;28;20055;-84
2021/07/15 01:28:59;;;;;;;16.00;6.55;;;;;;;;;;5117695;28;20032;-84
2021/07/15 01:31:25;;;;;;;23.52;6.65;;;;;;;;;;5117021;28;20035;-84
2021/07/15 01:33:51;;;;;;;9.13;5.60;;;;;;;;;;5118786;28;20527;-84
2021/07/15 01:36:19;;;;;;;13.13;5.43;;;;;;;;;;5116828;28;20039;-84
2021/07/15 01:38:58;;;;;;;26.27;7.90;;;;;;;;;;5117228;28;20031;-84
2021/07/15 01:41:29;;;;;;;13.95;6.07;;;;;;;;;;5116719;28;20096;-84
2021/07/15 01:44:20;;;;;;;130.00;7.72;;;;;;;;;;5099546;28;20042;-84
2021/07/15 01:46:46;;;;;;;11.95;6.85;;;;;;;;;;5114917;28;20040;-84
2021/07/15 01:49:12;;;;;;;11.18;6.68;;;;;;;;;;5118077;28;20169;-84
2021/07/15 01:51:39;;;;;;;8.07;6.45;;;;;;;;;;5117653;28;20039;-84
2021/07/15 01:54:06;;;;;;;87.63;8.35;;;;;;;;;;5116104;28;20119;-84
2021/07/15 01:56:34;;;;;;;65.85;8.60;;;;;;;;;;5115238;28;20398;-84
2021/07/15 01:59:00;;;;;;;11.77;6.55;;;;;;;;;;5116363;28;20459;-84
2021/07/15 02:01:27;;;;;;;15.25;7.30;;;;;;;;;;5094923;28;20028;-84
2021/07/15 02:03:56;;;;;;;53.80;8.02;;;;;;;;;;5097042;28;20032;-84
2021/07/15 02:06:23;;;;;;;35.45;7.18;;;;;;;;;;5096839;28;20414;-84
2021/07/15 02:08:51;;;;;;;30.65;6.85;;;;;;;;;;5100058;28;20393;-84
2021/07/15 02:11:16;;;;;;;20.92;6.13;;;;;;;;;;5115574;28;20036;-84
2021/07/15 02:13:43;;;;;;;24.38;6.20;;;;;;;;;;5116465;28;20542;-82
2021/07/15 02:16:10;;;;;;;10.40;5.90;;;;;;;;;;5115213;28;20401;-85
2021/07/15 02:18:38;;;;;;;10.65;5.50;;;;;;;;;;5115083;28;20040;-84
2021/07/15 02:21:04;;;;;;;43.60;7.13;;;;;;;;;;5115282;28;20047;-84
2021/07/15 02:23:32;;;;;;;57.45;7.80;;;;;;;;;;5114861;28;20031;-84
2021/07/15 02:25:58;;;;;;;151.23;7.10;;;;;;;;;;5113550;28;20107;-84
2021/07/15 02:28:25;;;;;;;36.22;6.35;;;;;;;;;;5114446;28;20031;-84
2021/07/15 02:31:03;;;;;;;15.60;5.80;;;;;;;;;;5114251;28;20092;-84
2021/07/15 02:33:31;;;;;;;26.33;5.85;;;;;;;;;;5113990;28;20067;-83
2021/07/15 02:36:02;;;;;;;11.63;6.00;;;;;;;;;;5115538;28;20057;-82
2021/07/15 02:38:31;;;;;;;13.98;5.45;;;;;;;;;;5115339;28;20043;-83
2021/07/15 02:40:57;;;;;;;9.82;5.30;;;;;;;;;;5114955;28;20032;-83
2021/07/15 02:43:22;;;;;;;11.45;4.93;;;;;;;;;;5115820;28;20031;-83
2021/07/15 02:45:48;;;;;;;30.55;6.30;;;;;;;;;;5113568;28;20044;-83
2021/07/15 02:48:17;;;;;;;32.53;8.68;;;;;;;;;;5113745;28;20074;-82
2021/07/15 02:50:42;;;;;;;16.25;5.68;;;;;;;;;;5113487;28;20410;-83
2021/07/15 02:53:08;;;;;;;11.63;5.75;;;;;;;;;;5114532;28;20043;-84
2021/07/15 02:55:34;;;;;;;10.73;5.50;;;;;;;;;;5112941;28;20031;-83
2021/07/15 02:58:04;;;;;;;19.45;5.32;;;;;;;;;;5113213;28;20036;-81
2021/07/15 03:00:41;;;;;;;53.55;5.38;;;;;;;;;;5114310;28;20036;-82
2021/07/15 03:03:21;;;;;;;14.43;5.15;;;;;;;;;;5112806;28;20088;-83
2021/07/15 03:05:58;;;;;;;57.03;6.03;;;;;;;;;;5112615;28;20051;-83
2021/07/15 03:08:27;;;;;;;16.90;6.65;;;;;;;;;;5114133;28;20031;-81
2021/07/15 03:10:55;;;;;;;9.73;6.15;;;;;;;;;;5112824;28;20028;-82
2021/07/15 03:13:22;;;;;;;13.98;5.57;;;;;;;;;;5112807;28;20032;-82
2021/07/15 03:15:48;;;;;;;8.52;4.80;;;;;;;;;;5114112;28;20031;-81
2021/07/15 03:18:20;;;;;;;9.63;5.05;;;;;;;;;;5114379;28;20478;-82
2021/07/15 03:20:47;;;;;;;74.85;6.60;;;;;;;;;;5112905;28;20083;-81
2021/07/15 03:23:16;;;;;;;79.28;8.13;;;;;;;;;;5099654;28;20093;-81
2021/07/15 03:25:46;;;;;;;98.68;7.60;;;;;;;;;;5092269;28;20487;-82
2021/07/15 03:28:14;;;;;;;7.50;6.20;;;;;;;;;;5093740;28;20044;-81
2021/07/15 03:30:40;;;;;;;65.40;6.60;;;;;;;;;;5104867;28;20062;-82
2021/07/15 03:33:06;;;;;;;6.93;5.38;;;;;;;;;;5112446;28;20152;-81
2021/07/15 03:35:31;;;;;;;7.35;5.60;;;;;;;;;;5113589;28;20067;-82
2021/07/15 03:37:57;;;;;;;12.63;5.45;;;;;;;;;;5114307;28;20490;-82
2021/07/15 03:40:26;;;;;;;23.25;5.00;;;;;;;;;;5113571;28;20421;-81
2021/07/15 03:42:53;;;;;;;160.60;8.35;;;;;;;;;;5113960;28;20036;-82
2021/07/15 03:45:20;;;;;;;118.45;7.18;;;;;;;;;;5112255;28;20463;-82
2021/07/15 03:47:49;;;;;;;136.70;8.32;;;;;;;;;;5113421;28;20546;-82
2021/07/15 03:50:19;;;;;;;331.70;11.32;;;;;;;;;;5113617;28;20035;-81
2021/07/15 03:52:48;;;;;;;9.45;5.95;;;;;;;;;;5113526;28;20049;-82
2021/07/15 03:55:15;;;;;;;54.55;6.50;;;;;;;;;;5112128;28;20039;-81
2021/07/15 03:57:43;;;;;;;14.80;7.05;;;;;;;;;;5113545;28;20035;-82
2021/07/15 04:00:09;;;;;;;15.40;6.35;;;;;;;;;;5112214;28;20510;-82
2021/07/15 04:02:40;;;;;;;39.53;6.65;;;;;;;;;;5119430;28;20032;-81
2021/07/15 04:05:06;;;;;;;11.10;5.50;;;;;;;;;;5120070;28;20054;-82
2021/07/15 04:07:33;;;;;;;9.23;6.47;;;;;;;;;;5121035;28;20035;-82
2021/07/15 04:09:59;;;;;;;26.08;5.47;;;;;;;;;;5122517;28;20024;-82
2021/07/15 04:12:26;;;;;;;11.35;5.50;;;;;;;;;;5124602;28;20032;-81
2021/07/15 04:15:00;;;;;;;34.33;6.22;;;;;;;;;;5124242;28;20418;-82
2021/07/15 04:17:30;;;;;;;16.83;7.00;;;;;;;;;;5123895;28;20046;-81
2021/07/15 04:19:59;;;;;;;17.10;6.53;;;;;;;;;;5123314;28;20102;-82
2021/07/15 04:22:27;;;;;;;31.95;6.53;;;;;;;;;;5124036;28;20508;-82
2021/07/15 04:24:54;;;;;;;31.27;7.50;;;;;;;;;;5092342;28;20060;-81
2021/07/15 04:27:20;;;;;;;109.90;9.02;;;;;;;;;;5108486;27;20028;-81
2021/07/15 04:29:46;;;;;;;8.32;6.65;;;;;;;;;;5122405;28;20031;-82
2021/07/15 04:32:23;;;;;;;16.70;7.10;;;;;;;;;;5122123;28;20055;-82
2021/07/15 04:34:49;;;;;;;45.25;7.13;;;;;;;;;;5122444;28;20039;-82
2021/07/15 04:37:16;;;;;;;8.70;6.60;;;;;;;;;;5120153;28;20024;-82
2021/07/15 04:39:43;;;;;;;7.20;5.68;;;;;;;;;;5119922;28;20038;-82
2021/07/15 04:42:10;;;;;;;9.80;6.57;;;;;;;;;;5119922;28;20065;-82
2021/07/15 04:44:36;;;;;;;128.20;6.97;;;;;;;;;;5119946;28;20050;-82
2021/07/15 04:47:05;;;;;;;54.47;6.35;;;;;;;;;;5120501;28;20098;-81
2021/07/15 04:49:32;;;;;;;84.53;6.07;;;;;;;;;;5121318;27;20169;-82
2021/07/15 04:51:58;;;;;;;22.08;5.72;;;;;;;;;;5118988;28;20371;-82
2021/07/15 04:54:24;;;;;;;14.38;6.30;;;;;;;;;;5120498;28;20122;-82
2021/07/15 04:56:51;;;;;;;9.63;6.32;;;;;;;;;;5114397;27;20024;-81
2021/07/15 04:59:17;;;;;;;55.42;5.82;;;;;;;;;;5099809;28;20081;-82
2021/07/15 05:01:43;;;;;;;7.57;4.60;;;;;;;;;;5080869;28;20043;-82
2021/07/15 05:04:08;;;;;;;9.52;5.15;;;;;;;;;;5097574;28;20044;-82
2021/07/15 05:06:34;;;;;;;78.03;6.82;;;;;;;;;;5097853;28;20036;-82
2021/07/15 05:08:59;;;;;;;10.50;5.10;;;;;;;;;;5099307;28;20032;-82
2021/07/15 05:11:25;;;;;;;7.22;5.63;;;;;;;;;;5098590;28;20032;-82
2021/07/15 05:13:50;;;;;;;6.60;4.60;;;;;;;;;;5096784;28;20040;-82
2021/07/15 05:16:16;;;;;;;33.17;5.00;;;;;;;;;;5098753;28;20036;-82
2021/07/15 05:18:42;;;;;;;45.90;6.13;;;;;;;;;;5097733;28;20039;-82
2021/07/15 05:21:08;;;;;;;8.07;5.57;;;;;;;;;;5096334;28;20066;-82
2021/07/15 05:23:33;;;;;;;40.88;6.65;;;;;;;;;;5096295;28;20050;-81
2021/07/15 05:25:59;;;;;;;6.80;4.43;;;;;;;;;;5096797;28;20032;-81
2021/07/15 05:28:24;;;;;;;37.72;5.43;;;;;;;;;;5096510;28;20031;-82
2021/07/15 05:30:50;;;;;;;7.90;4.55;;;;;;;;;;5098494;28;20107;-82
2021/07/15 05:33:15;;;;;;;10.88;4.38;;;;;;;;;;5097878;28;20483;-81
2021/07/15 05:35:43;;;;;;;4.65;3.88;;;;;;;;;;5096622;28;20497;-82
2021/07/15 05:38:08;;;;;;;9.07;4.43;;;;;;;;;;5095865;28;20054;-82
2021/07/15 05:40:34;;;;;;;11.32;4.30;;;;;;;;;;5098142;28;20479;-81
2021/07/15 05:42:59;;;;;;;14.15;4.30;;;;;;;;;;5098076;28;20036;-81
2021/07/15 05:45:25;;;;;;;17.08;4.70;;;;;;;;;;5096706;28;20040;-81
2021/07/15 05:47:51;;;;;;;5.22;3.85;;;;;;;;;;5097744;28;20075;-81
2021/07/15 05:50:16;;;;;;;19.73;5.35;;;;;;;;;;5096929;28;20028;-81
2021/07/15 05:52:42;;;;;;;6.85;5.15;;;;;;;;;;5097155;28;20032;-80
2021/07/15 05:55:08;;;;;;;6.95;4.95;;;;;;;;;;5105743;28;20080;-81
2021/07/15 05:57:34;;;;;;;12.85;6.53;;;;;;;;;;5098716;27;20052;-81
2021/07/15 06:00:00;;;;;;;11.45;6.13;;;;;;;;;;5096930;28;20028;-81
2021/07/15 06:02:25;;;;;;;12.38;6.38;;;;;;;;;;5096526;28;20028;-81
2021/07/15 06:04:51;;;;;;;17.45;8.07;;;;;;;;;;5096085;28;20510;-81
2021/07/15 06:07:16;;;;;;;15.18;9.18;;;;;;;;;;5096796;28;20096;-81
2021/07/15 06:09:42;;;;;;;17.45;10.13;;;;;;;;;;5096616;28;20028;-81
2021/07/15 06:12:08;;;;;;;11.45;8.68;;;;;;;;;;5095879;28;20038;-81
2021/07/15 06:14:34;;;;;;;13.20;8.05;;;;;;;;;;5077920;28;20539;-81
2021/07/15 06:17:00;;;;;;;15.18;8.40;;;;;;;;;;5100293;28;20035;-81
2021/07/15 06:19:25;;;;;;;4.15;3.33;;;;;;;;;;5101034;28;20482;-81
2021/07/15 06:21:51;;;;;;;7.95;3.25;;;;;;;;;;5099290;28;20036;-81
2021/07/15 06:24:16;;;;;;;8.05;2.95;;;;;;;;;;5100390;28;20055;-81
2021/07/15 06:26:44;;;;;;;7.50;3.70;;;;;;;;;;5100606;27;20039;-82
2021/07/15 06:29:10;;;;;;;8.95;5.25;;;;;;;;;;5099314;28;20051;-81
2021/07/15 06:31:37;;;;;;;6.10;4.03;;;;;;;;;;5094003;28;20043;-81
2021/07/15 06:34:04;;;;;;;7.30;4.55;;;;;;;;;;5094730;28;20047;-80
2021/07/15 06:36:34;;;;;;;11.10;4.80;;;;;;;;;;5093086;28;20443;-82
2021/07/15 06:39:00;;;;;;;8.88;3.80;;;;;;;;;;5093967;28;20042;-82
2021/07/15 06:41:26;;;;;;;4.72;2.50;;;;;;;;;;5094082;28;20024;-82
2021/07/15 06:43:51;;;;;;;6.55;3.17;;;;;;;;;;5094472;28;20131;-82
2021/07/15 06:46:17;;;;;;;3.78;2.70;;;;;;;;;;5095996;28;20024;-83
2021/07/15 06:48:42;;;;;;;4.55;2.30;;;;;;;;;;5093145;28;20502;-81
2021/07/15 06:51:08;;;;;;;6.35;2.38;;;;;;;;;;5094507;28;20074;-82
2021/07/15 06:53:34;;;;;;;6.05;3.10;;;;;;;;;;5095191;28;20082;-83
2021/07/15 06:56:00;;;;;;;8.38;3.22;;;;;;;;;;5101823;28;20104;-85
2021/07/15 06:58:28;;;;;;;12.05;3.50;;;;;;;;;;5110061;28;21270;-85
2021/07/15 07:00:56;;;;;;;5.43;2.80;;;;;;;;;;5091921;28;20040;-82
2021/07/15 07:03:22;;;;;;;8.40;3.83;;;;;;;;;;5093476;28;20479;-80
2021/07/15 07:05:52;;;;;;;7.20;3.00;;;;;;;;;;5092941;28;20054;-82
2021/07/15 07:08:17;;;;;;;10.48;2.55;;;;;;;;;;5093700;28;20509;-83
2021/07/15 07:10:43;;;;;;;3.22;2.17;;;;;;;;;;5112314;28;20036;-82
2021/07/15 07:13:08;;;;;;;5.05;2.22;;;;;;;;;;5114257;28;20042;-82
2021/07/15 07:15:34;;;;;;;7.32;2.17;;;;;;;;;;5112293;28;20151;-82
2021/07/15 07:17:59;;;;;;;6.13;1.73;;;;;;;;;;5114014;28;20069;-81
2021/07/15 07:20:25;;;;;;;4.05;1.70;;;;;;;;;;5113555;28;20463;-81
2021/07/15 07:22:50;;;;;;;6.57;1.77;;;;;;;;;;5114662;28;20027;-82
2021/07/15 07:25:17;;;;;;;6.25;1.75;;;;;;;;;;5112057;28;20501;-85
2021/07/15 07:27:43;;;;;;;1.27;1.17;;;;;;;;;;5115044;28;20035;-82
2021/07/15 07:30:10;;;;;;;2.63;1.70;;;;;;;;;;5120448;28;20038;-82
2021/07/15 07:32:35;;;;;;;5.05;1.27;;;;;;;;;;5117653;28;20031;-82
2021/07/15 07:35:01;;;;;;;1.58;1.30;;;;;;;;;;5101294;28;20042;-84
2021/07/15 07:37:28;;;;;;;2.47;1.30;;;;;;;;;;5119830;28;20089;-82
2021/07/15 07:39:55;;;;;;;3.58;1.30;;;;;;;;;;5115708;28;20378;-81
2021/07/15 07:42:20;;;;;;;13.80;3.95;;;;;;;;;;5117958;28;20061;-82
2021/07/15 07:44:45;;;;;;;1.48;1.05;;;;;;;;;;5121229;28;20023;-84
2021/07/15 07:47:11;;;;;;;6.57;3.17;;;;;;;;;;5121853;28;20375;-85
2021/07/15 07:49:36;;;;;;;5.28;1.75;;;;;;;;;;5099750;28;20181;-84
2021/07/15 07:52:04;;;;;;;4.90;1.52;;;;;;;;;;5099832;28;20067;-83
2021/07/15 07:54:29;;;;;;;3.00;1.13;;;;;;;;;;5100223;28;20057;-84
2021/07/15 07:56:54;;;;;;;2.42;1.35;;;;;;;;;;5100198;28;20067;-84
2021/07/15 07:59:20;;;;;;;2.38;1.50;;;;;;;;;;5100620;28;20040;-84
2021/07/15 08:01:46;;;;;;;2.63;1.10;;;;;;;;;;5082236;28;20041;-84
2021/07/15 08:04:12;;;;;;;3.10;0.80;;;;;;;;;;5098730;28;20479;-82
2021/07/15 08:06:38;;;;;;;1.17;0.88;;;;;;;;;;5099296;28;20475;-83
2021/07/15 08:09:22;;;;;;;1.10;0.93;;;;;;;;;;5099305;28;20040;-81
2021/07/15 08:11:49;;;;;;;3.70;0.88;;;;;;;;;;5099288;28;20038;-82
2021/07/15 08:14:15;;;;;;;1.88;0.80;;;;;;;;;;5098667;28;20071;-82
2021/07/15 08:16:40;;;;;;;2.67;0.85;;;;;;;;;;5097160;28;20027;-83
2021/07/15 08:19:06;;;;;;;1.23;0.75;;;;;;;;;;5081331;28;20127;-83
2021/07/15 08:21:32;;;;;;;1.63;0.90;;;;;;;;;;5097587;28;20036;-84
2021/07/15 08:23:58;;;;;;;2.53;0.73;;;;;;;;;;5101811;28;20039;-84
2021/07/15 08:26:24;;;;;;;0.82;0.73;;;;;;;;;;5117939;27;20040;-83
2021/07/15 08:28:49;;;;;;;2.25;0.45;;;;;;;;;;5119880;28;20032;-83
2021/07/15 08:31:15;;;;;;;1.33;0.60;;;;;;;;;;5117601;28;20028;-83
2021/07/15 08:33:40;;;;;;;0.85;0.60;;;;;;;;;;5119635;28;20398;-84
2021/07/15 08:36:06;;;;;;;3.83;0.95;;;;;;;;;;5116969;28;20031;-83
2021/07/15 08:38:32;;;;;;;2.25;0.75;;;;;;;;;;5118008;28;20509;-84
2021/07/15 08:40:57;;;;;;;0.77;0.57;;;;;;;;;;5119248;28;20399;-84
2021/07/15 08:43:23;;;;;;;3.35;0.82;;;;;;;;;;5119158;28;20092;-84
2021/07/15 08:45:50;;;;;;;1.77;0.70;;;;;;;;;;5116986;28;20027;-84
2021/07/15 08:48:18;;;;;;;0.60;0.60;;;;;;;;;;5116972;28;20035;-84
2021/07/15 08:50:43;;;;;;;7.13;0.73;;;;;;;;;;5103625;27;20043;-84
2021/07/15 08:53:10;;;;;;;3.05;2.10;;;;;;;;;;5096714;28;20040;-85
2021/07/15 08:58:20;;;;;;;0.98;0.80;;;;;;;;;;5115709;27;20034;-84
2021/07/15 09:00:47;;;;;;;2.47;0.68;;;;;;;;;;5137965;27;20394;-84
2021/07/15 09:03:13;;;;;;;1.40;0.60;;;;;;;;;;5136156;27;20035;-85
2021/07/15 09:05:41;;;;;;;0.65;0.60;;;;;;;;;;5135089;27;20058;-84
2021/07/15 09:08:07;;;;;;;3.72;0.45;;;;;;;;;;5136338;27;20035;-84
2021/07/15 09:10:32;;;;;;;2.40;0.65;;;;;;;;;;5136254;27;20034;-84
2021/07/15 09:12:59;;;;;;;0.40;0.40;;;;;;;;;;5137988;27;20031;-84
2021/07/15 09:15:25;;;;;;;0.40;0.40;;;;;;;;;;5137872;27;20035;-84
2021/07/15 09:17:51;;;;;;;0.50;0.50;;;;;;;;;;5136645;27;20035;-84
2021/07/15 09:20:20;;;;;;;1.30;0.70;;;;;;;;;;5110398;28;20364;-84
2021/07/15 09:23:07;;;;;;;1.13;0.43;;;;;;;;;;5117397;28;20184;-84
2021/07/15 09:25:39;;;;;;;1.38;0.60;;;;;;;;;;5118032;28;20035;-84
2021/07/15 09:28:13;;;;;;;0.93;0.50;;;;;;;;;;5097955;27;20036;-84
2021/07/15 09:30:40;;;;;;;0.38;0.38;;;;;;;;;;5094930;28;20032;-84
2021/07/15 09:33:11;;;;;;;0.73;0.52;;;;;;;;;;5094223;28;20069;-84
2021/07/15 09:35:47;;;;;;;0.80;0.38;;;;;;;;;;5095363;28;20031;-84
2021/07/15 09:38:18;;;;;;;0.80;0.32;;;;;;;;;;5094707;28;20035;-82
2021/07/15 09:41:00;;;;;;;0.28;0.28;;;;;;;;;;5096803;28;20032;-82
2021/07/15 09:43:30;;;;;;;2.08;0.30;;;;;;;;;;5110755;28;20110;-83
2021/07/15 09:45:58;;;;;;;2.35;0.65;;;;;;;;;;5117263;28;20107;-83
2021/07/15 09:48:25;;;;;;;1.95;0.35;;;;;;;;;;5115805;28;20054;-83
2021/07/15 09:50:56;;;;;;;2.97;0.60;;;;;;;;;;5117099;28;20379;-83
2021/07/15 09:53:26;;;;;;;0.85;0.43;;;;;;;;;;5114428;28;20158;-83
2021/07/15 09:56:05;;;;;;;0.73;0.55;;;;;;;;;;5114910;28;20039;-83
2021/07/15 09:58:42;;;;;;;1.30;0.40;;;;;;;;;;5114691;28;20040;-84
2021/07/15 10:01:12;;;;;;;2.38;0.73;;;;;;;;;;5114749;28;20504;-83
2021/07/15 10:03:41;;;;;;;1.48;0.43;;;;;;;;;;5097420;28;20035;-82
2021/07/15 10:06:08;;;;;;;2.80;0.55;;;;;;;;;;5114777;28;20073;-83
2021/07/15 10:08:35;;;;;;;0.75;0.30;;;;;;;;;;5114322;28;20043;-84
2021/07/15 10:11:26;;;;;;;3.97;0.60;;;;;;;;;;5099645;28;20036;-87
2021/07/15 10:14:09;;;;;;;1.67;0.45;;;;;;;;;;5096488;28;20093;-87
2021/07/15 10:16:41;;;;;;;10.23;2.40;;;;;;;;;;5093296;28;20044;-85
2021/07/15 10:19:16;;;;;;;1.00;0.50;;;;;;;;;;5092565;28;20130;-85
2021/07/15 10:21:41;;;;;;;1.15;0.50;;;;;;;;;;5094033;28;20036;-85
2021/07/15 10:24:21;;;;;;;2.90;0.47;;;;;;;;;;5092650;28;20545;-88
2021/07/15 10:26:50;;;;;;;1.33;0.65;;;;;;;;;;5077651;28;20398;-90
2021/07/15 10:29:17;;;;;;;1.00;0.50;;;;;;;;;;5093049;28;20031;-86
2021/07/15 10:31:46;;;;;;;2.47;0.82;;;;;;;;;;5076540;28;20391;-89
2021/07/15 10:34:12;;;;;;;2.67;0.88;;;;;;;;;;5076031;28;20066;-88
2021/07/15 10:36:44;;;;;;;4.15;0.70;;;;;;;;;;5093698;28;20038;-91
2021/07/15 10:39:13;;;;;;;2.90;0.90;;;;;;;;;;5076070;28;20032;-89
2021/07/15 10:41:44;;;;;;;4.03;0.50;;;;;;;;;;5094478;28;20085;-90
2021/07/15 10:44:10;;;;;;;0.85;0.57;;;;;;;;;;5080982;28;20035;-90
2021/07/15 10:46:38;;;;;;;1.95;0.40;;;;;;;;;;5096129;28;20036;-91
2021/07/15 10:49:07;;;;;;;2.00;0.60;;;;;;;;;;5094315;28;20035;-90
2021/07/15 10:51:38;;;;;;;0.47;0.47;;;;;;;;;;5093864;28;20035;-91
2021/07/15 10:54:05;;;;;;;3.63;0.60;;;;;;;;;;5093228;28;20117;-88
2021/07/15 10:56:33;;;;;;;3.38;0.32;;;;;;;;;;5095215;28;20028;-90
2021/07/15 10:59:00;;;;;;;2.92;0.50;;;;;;;;;;5102077;28;20054;-89
2021/07/15 11:01:41;;;;;;;3.92;0.43;;;;;;;;;;5115931;28;20035;-89
2021/07/15 11:04:23;;;;;;;2.83;0.35;;;;;;;;;;5112893;28;20058;-89
2021/07/15 11:06:53;;;;;;;1.25;0.50;;;;;;;;;;5114167;28;20137;-87
2021/07/15 11:09:36;;;;;;;4.15;0.50;;;;;;;;;;5095733;28;20028;-86
2021/07/15 11:12:24;;;;;;;1.50;0.88;;;;;;;;;;5095187;28;20031;-86
2021/07/15 11:15:00;;;;;;;2.63;0.75;;;;;;;;;;5112841;28;20180;-86
2021/07/15 11:17:29;;;;;;;1.33;0.63;;;;;;;;;;5113421;28;20043;-86
2021/07/15 11:20:05;;;;;;;1.40;1.23;;;;;;;;;;5098816;28;20023;-86
2021/07/15 11:22:59;;;;;;;2.03;0.45;;;;;;;;;;5117542;28;20394;-86
2021/07/15 11:25:27;;;;;;;0.30;0.30;;;;;;;;;;5117296;28;20039;-86
2021/07/15 11:27:54;;;;;;;1.02;0.47;;;;;;;;;;5116383;28;20074;-86
2021/07/15 11:30:32;;;;;;;2.17;0.20;;;;;;;;;;5099152;28;20085;-86
2021/07/15 11:33:23;;;;;;;0.43;0.30;;;;;;;;;;5096099;27;20065;-86
2021/07/15 11:35:51;;;;;;;4.43;0.50;;;;;;;;;;5095463;28;20036;-86
2021/07/15 11:38:23;;;;;;;2.15;0.40;;;;;;;;;;5095735;28;20043;-86
2021/07/15 11:40:52;;;;;;;1.65;0.57;;;;;;;;;;5095439;28;20040;-86
2021/07/15 11:43:26;;;;;;;2.83;0.40;;;;;;;;;;5096886;28;20028;-86
2021/07/15 11:46:07;;;;;;;0.65;0.60;;;;;;;;;;5078366;28;20375;-86
2021/07/15 11:48:44;;;;;;;0.80;0.25;;;;;;;;;;5095468;28;20127;-86
2021/07/15 11:51:29;;;;;;;4.72;0.45;;;;;;;;;;5095400;28;20056;-86
2021/07/15 11:54:22;;;;;;;5.88;0.73;;;;;;;;;;5078401;28;20036;-86
2021/07/15 11:56:54;;;;;;;0.25;0.22;;;;;;;;;;5095345;28;20036;-86
2021/07/15 11:59:36;;;;;;;1.38;0.40;;;;;;;;;;5096709;28;20032;-86
2021/07/15 12:02:24;;;;;;;10.15;0.50;;;;;;;;;;5097554;28;20044;-86
2021/07/15 12:05:07;;;;;;;1.80;0.35;;;;;;;;;;5097149;28;20048;-86
2021/07/15 12:07:46;;;;;;;0.50;0.20;;;;;;;;;;5095364;28;20487;-86
2021/07/15 12:10:35;;;;;;;3.08;0.60;;;;;;;;;;5078127;28;20020;-86
2021/07/15 12:13:04;;;;;;;3.10;0.40;;;;;;;;;;5094732;28;20441;-86
2021/07/15 12:15:30;;;;;;;0.50;0.10;;;;;;;;;;5095193;28;20040;-87
2021/07/15 12:18:09;;;;;;;4.90;0.85;;;;;;;;;;5078052;28;20483;-86
2021/07/15 12:20:43;;;;;;;0.73;0.40;;;;;;;;;;5095015;28;20047;-86
2021/07/15 12:23:19;;;;;;;1.45;0.68;;;;;;;;;;5077945;28;20040;-86
2021/07/15 12:25:47;;;;;;;1.85;0.47;;;;;;;;;;5096063;28;20038;-87
2021/07/15 12:28:19;;;;;;;4.38;0.50;;;;;;;;;;5094959;28;20551;-86
2021/07/15 12:30:45;;;;;;;0.75;0.57;;;;;;;;;;5093729;28;20040;-87
2021/07/15 12:33:14;;;;;;;4.03;0.68;;;;;;;;;;5095967;28;20035;-87
2021/07/15 12:35:41;;;;;;;1.42;0.30;;;;;;;;;;5094706;28;20066;-87
2021/07/15 12:38:25;;;;;;;0.50;0.38;;;;;;;;;;5077778;28;20031;-86
2021/07/15 12:41:04;;;;;;;0.93;0.40;;;;;;;;;;5085169;28;20031;-89
2021/07/15 12:43:38;;;;;;;10.30;0.57;;;;;;;;;;5114960;28;20402;-84
2021/07/15 12:46:09;;;;;;;8.18;0.75;;;;;;;;;;5115894;28;20031;-84
2021/07/15 12:48:43;;;;;;;3.03;0.50;;;;;;;;;;5116669;28;20109;-84
2021/07/15 12:51:08;;;;;;;4.55;0.52;;;;;;;;;;5115646;28;20532;-85
2021/07/15 12:53:37;;;;;;;1.35;0.40;;;;;;;;;;5116151;28;20494;-85
2021/07/15 12:56:04;;;;;;;1.00;0.40;;;;;;;;;;5115554;28;20080;-85
2021/07/15 12:58:29;;;;;;;0.40;0.40;;;;;;;;;;5110388;28;20410;-84
2021/07/15 13:01:04;;;;;;;2.75;0.40;;;;;;;;;;5094548;28;20032;-84
2021/07/15 13:03:30;;;;;;;;;;;;;;;;;;5094656;28;20135;-84
2021/07/15 13:05:55;;;;;;;0.77;0.38;;;;;;;;;;5110931;28;19994;-85
2021/07/15 13:08:29;;;;;;;0.30;0.30;;;;;;;;;;5095689;28;20481;-84
2021/07/15 13:16:18;;;;;;;1.08;0.43;;;;;;;;;;5095353;28;20036;-84
2021/07/15 13:18:44;;;;;;;0.45;0.43;;;;;;;;;;5095450;28;20193;-84
2021/07/15 13:21:09;;;;;;;1.10;0.50;;;;;;;;;;5109269;28;20081;-84
2021/07/15 13:23:39;;;;;;;0.95;0.60;;;;;;;;;;5113970;28;20036;-85
2021/07/15 13:26:11;;;;;;;3.10;0.70;;;;;;;;;;5114526;27;20466;-84
2021/07/15 13:28:37;;;;;;;1.75;0.50;;;;;;;;;;5114031;28;20043;-84
2021/07/15 13:31:13;;;;;;;0.52;0.52;;;;;;;;;;5114228;28;20425;-84
2021/07/15 13:33:47;;;;;;;4.10;0.50;;;;;;;;;;5113789;28;20118;-84
2021/07/15 13:36:14;;;;;;;1.55;0.52;;;;;;;;;;5113863;28;20031;-84
2021/07/15 13:38:47;;;;;;;0.98;0.57;;;;;;;;;;5115155;28;20036;-84
2021/07/15 13:41:29;;;;;;;0.95;0.47;;;;;;;;;;5114648;28;20122;-85
2021/07/15 13:44:10;;;;;;;0.93;0.60;;;;;;;;;;5096577;28;20043;-84
2021/07/15 13:46:37;;;;;;;2.30;0.52;;;;;;;;;;5096660;28;20453;-84
2021/07/15 13:49:04;;;;;;;1.52;0.50;;;;;;;;;;5113962;28;20032;-84
2021/07/15 13:51:30;;;;;;;1.13;0.40;;;;;;;;;;5113619;28;20032;-84
2021/07/15 13:53:56;;;;;;;0.45;0.30;;;;;;;;;;5113461;28;20088;-84
2021/07/15 13:56:24;;;;;;;0.95;0.50;;;;;;;;;;5113048;28;20035;-84
2021/07/15 13:58:52;;;;;;;5.75;0.45;;;;;;;;;;5114538;28;20076;-84
2021/07/15 14:01:28;;;;;;;0.35;0.35;;;;;;;;;;5113307;28;20059;-85
2021/07/15 14:03:55;;;;;;;0.50;0.50;;;;;;;;;;5114572;28;20479;-85
2021/07/15 14:06:21;;;;;;;4.22;0.77;;;;;;;;;;5113237;28;20048;-84
2021/07/15 14:08:57;;;;;;;0.90;0.50;;;;;;;;;;5113752;28;20039;-84
2021/07/15 14:11:23;;;;;;;0.40;0.40;;;;;;;;;;5111637;28;20027;-85
2021/07/15 14:13:49;;;;;;;1.00;0.65;;;;;;;;;;5112569;28;20513;-84
2021/07/15 14:16:16;;;;;;;3.85;0.32;;;;;;;;;;5096143;28;20031;-85
2021/07/15 14:18:42;;;;;;;2.40;0.80;;;;;;;;;;5096047;28;20123;-84
2021/07/15 14:21:07;;;;;;;2.20;0.80;;;;;;;;;;5114053;28;20126;-85
2021/07/15 14:23:34;;;;;;;0.30;0.30;;;;;;;;;;5114094;28;20039;-84
2021/07/15 14:26:10;;;;;;;0.63;0.40;;;;;;;;;;5114095;28;20035;-84
2021/07/15 14:28:36;;;;;;;6.53;0.80;;;;;;;;;;5110652;27;20126;-85
2021/07/15 14:31:02;;;;;;;1.23;0.65;;;;;;;;;;5092317;28;20038;-84
2021/07/15 14:33:28;;;;;;;1.58;0.57;;;;;;;;;;5093708;28;20030;-84
2021/07/15 14:35:53;;;;;;;0.68;0.55;;;;;;;;;;5092211;28;20715;-85
2021/07/15 14:38:19;;;;;;;2.28;0.45;;;;;;;;;;5092546;28;20093;-85
2021/07/15 14:40:46;;;;;;;4.40;1.02;;;;;;;;;;5092125;28;20115;-85
2021/07/15 14:43:12;;;;;;;8.02;1.85;;;;;;;;;;5093551;28;20077;-85
2021/07/15 14:45:39;;;;;;;0.68;0.60;;;;;;;;;;5091721;28;20028;-85
2021/07/15 14:48:06;;;;;;;0.40;0.40;;;;;;;;;;5093736;28;20089;-85
2021/07/15 14:50:32;;;;;;;3.97;0.68;;;;;;;;;;5092427;28;20094;-84
2021/07/15 14:52:57;;;;;;;0.70;0.60;;;;;;;;;;5092012;28;20036;-84
2021/07/15 14:55:25;;;;;;;0.52;0.52;;;;;;;;;;5106045;28;20031;-84
2021/07/15 14:57:51;;;;;;;1.00;0.55;;;;;;;;;;5097217;28;20089;-84